createdAt,value
2023-08-11T00:00:10.096Z,4.10
2023-08-11T00:02:40.146Z,3.77
2023-08-11T00:05:09.897Z,3.50
2023-08-11T00:07:36.932Z,3.87
2023-08-11T00:10:09.389Z,4.00
2023-08-11T00:12:36.699Z,3.63
2023-08-11T00:15:24.124Z,4.30
2023-08-11T00:17:54.418Z,4.03
2023-08-11T00:20:21.544Z,3.80
2023-08-11T00:22:48.758Z,4.30
2023-08-11T00:25:16.332Z,4.73
2023-08-11T00:27:43.514Z,4.63
2023-08-11T00:30:11.571Z,4.13
2023-08-11T00:32:39.613Z,6.07
2023-08-11T00:35:07.529Z,4.13
2023-08-11T00:37:35.282Z,4.57
2023-08-11T00:40:08.150Z,5.10
2023-08-11T00:42:35.521Z,3.83
2023-08-11T00:45:04.216Z,4.47
2023-08-11T00:47:37.455Z,5.03
2023-08-11T00:50:05.191Z,4.63
2023-08-11T00:52:32.447Z,4.53
2023-08-11T00:55:02.984Z,6.13
2023-08-11T00:57:30.215Z,3.83
2023-08-11T00:59:57.677Z,4.23
2023-08-11T01:02:24.816Z,4.70
2023-08-11T01:04:54.794Z,4.90
2023-08-11T01:07:33.502Z,4.73
2023-08-11T01:10:09.909Z,4.53
2023-08-11T01:13:24.344Z,4.20
2023-08-11T01:16:10.638Z,4.13
2023-08-11T01:18:38.201Z,5.37
2023-08-11T01:21:12.471Z,5.27
2023-08-11T01:23:44.462Z,4.07
2023-08-11T01:26:12.893Z,4.80
2023-08-11T01:28:42.411Z,4.57
2023-08-11T01:31:10.088Z,4.00
2023-08-11T01:33:37.189Z,5.33
2023-08-11T01:36:06.833Z,3.90
2023-08-11T01:38:34.060Z,4.30
2023-08-11T01:41:03.911Z,3.70
2023-08-11T01:43:31.499Z,4.20
2023-08-11T01:45:59.802Z,4.47
2023-08-11T01:48:27.910Z,3.40
2023-08-11T01:50:56.665Z,4.73
2023-08-11T01:53:23.849Z,3.63
2023-08-11T01:55:51.841Z,3.40
2023-08-11T01:58:18.967Z,3.37
2023-08-11T02:00:46.113Z,4.43
2023-08-11T02:03:14.408Z,4.20
2023-08-11T02:05:41.547Z,3.03
2023-08-11T02:08:08.637Z,3.40
2023-08-11T02:10:35.735Z,4.27
2023-08-11T02:13:04.556Z,4.00
2023-08-11T02:15:31.546Z,4.67
2023-08-11T02:17:58.612Z,4.80
2023-08-11T02:20:25.944Z,4.60
2023-08-11T02:22:54.254Z,4.50
2023-08-11T02:25:21.871Z,5.23
2023-08-11T02:27:49.313Z,4.23
2023-08-11T02:30:19.906Z,3.83
2023-08-11T02:32:52.519Z,4.97
2023-08-11T02:35:28.133Z,4.73
2023-08-11T02:38:04.768Z,3.90
2023-08-11T02:40:37.642Z,3.87
2023-08-11T02:43:08.715Z,4.13
2023-08-11T02:45:37.282Z,4.40
2023-08-11T02:48:04.647Z,4.30
2023-08-11T02:50:32.049Z,3.90
2023-08-11T02:52:59.103Z,3.27
2023-08-11T02:55:26.584Z,3.60
2023-08-11T02:57:53.644Z,3.93
2023-08-11T03:00:20.703Z,3.70
2023-08-11T03:02:48.440Z,4.07
2023-08-11T03:05:17.397Z,3.60
2023-08-11T03:07:46.935Z,3.10
2023-08-11T03:10:14.165Z,3.07
2023-08-11T03:12:43.421Z,3.93
2023-08-11T03:15:10.720Z,3.60
2023-08-11T03:17:39.346Z,3.57
2023-08-11T03:20:13.126Z,3.47
2023-08-11T03:22:42.485Z,3.83
2023-08-11T03:25:10.887Z,3.40
2023-08-11T03:27:40.124Z,3.57
2023-08-11T03:30:10.471Z,3.30
2023-08-11T03:32:42.245Z,3.13
2023-08-11T03:35:10.520Z,3.33
2023-08-11T03:37:39.242Z,4.00
2023-08-11T03:40:14.453Z,4.10
2023-08-11T03:42:46.123Z,3.70
2023-08-11T03:45:14.872Z,3.33
2023-08-11T03:47:43.931Z,3.30
2023-08-11T03:50:17.051Z,3.60
2023-08-11T03:52:44.491Z,3.33
2023-08-11T03:55:14.068Z,3.20
2023-08-11T03:57:41.470Z,3.47
2023-08-11T04:00:18.155Z,3.07
2023-08-11T04:02:51.837Z,3.50
2023-08-11T04:05:19.839Z,3.23
2023-08-11T04:07:46.887Z,3.27
2023-08-11T04:10:14.101Z,3.87
2023-08-11T04:12:41.352Z,3.40
2023-08-11T04:15:08.706Z,4.10
2023-08-11T04:17:35.854Z,4.20
2023-08-11T04:20:12.726Z,3.50
2023-08-11T04:22:41.447Z,3.23
2023-08-11T04:25:10.696Z,2.97
2023-08-11T04:27:41.263Z,3.80
2023-08-11T04:30:10.187Z,3.67
2023-08-11T04:32:38.997Z,3.20
2023-08-11T04:35:10.080Z,3.63
2023-08-11T04:37:39.530Z,3.40
2023-08-11T04:40:08.452Z,3.93
2023-08-11T04:42:35.699Z,3.13
2023-08-11T04:45:03.019Z,3.87
2023-08-11T04:47:30.889Z,4.30
2023-08-11T04:49:58.677Z,3.90
2023-08-11T04:52:25.847Z,4.33
2023-08-11T04:54:52.876Z,3.97
2023-08-11T04:57:20.138Z,4.13
2023-08-11T04:59:49.289Z,5.00
2023-08-11T05:02:16.389Z,5.00
2023-08-11T05:04:43.533Z,5.50
2023-08-11T05:07:11.042Z,4.57
2023-08-11T05:09:38.934Z,4.27
2023-08-11T05:12:06.694Z,4.30
2023-08-11T05:14:34.038Z,4.70
2023-08-11T05:17:03.817Z,5.60
2023-08-11T05:19:32.706Z,4.40
2023-08-11T05:21:59.685Z,4.70
2023-08-11T05:24:26.698Z,4.40
2023-08-11T05:26:53.786Z,4.70
2023-08-11T05:29:20.899Z,4.60
2023-08-11T05:31:48.461Z,4.67
2023-08-11T05:34:15.816Z,4.73
2023-08-11T05:36:45.906Z,4.80
2023-08-11T05:39:14.178Z,5.27
2023-08-11T05:41:42.553Z,5.70
2023-08-11T05:44:09.938Z,5.60
2023-08-11T05:46:37.133Z,4.57
2023-08-11T05:49:04.460Z,5.10
2023-08-11T05:51:31.609Z,5.30
2023-08-11T05:53:58.826Z,5.40
2023-08-11T05:56:25.878Z,4.60
2023-08-11T05:58:53.036Z,5.50
2023-08-11T06:01:20.149Z,5.47
2023-08-11T06:03:50.006Z,5.93
2023-08-11T06:06:20.366Z,5.00
2023-08-11T06:08:50.960Z,4.83
2023-08-11T06:11:18.194Z,5.03
2023-08-11T06:13:45.273Z,5.40
2023-08-11T06:16:12.483Z,5.53
2023-08-11T06:18:39.763Z,6.03
2023-08-11T06:21:07.462Z,5.80
2023-08-11T06:23:34.651Z,6.87
2023-08-11T06:26:01.686Z,6.30
2023-08-11T06:28:28.802Z,6.10
2023-08-11T06:30:57.736Z,6.33
2023-08-11T06:33:26.532Z,4.97
2023-08-11T06:35:54.439Z,5.63
2023-08-11T06:38:21.565Z,4.97
2023-08-11T06:40:49.172Z,5.07
2023-08-11T06:43:16.164Z,4.37
2023-08-11T06:45:46.375Z,4.70
2023-08-11T06:48:13.661Z,5.13
2023-08-11T06:50:40.858Z,4.70
2023-08-11T06:53:10.492Z,4.50
2023-08-11T06:55:37.766Z,4.23
2023-08-11T06:58:05.489Z,4.73
2023-08-11T07:00:32.523Z,3.63
2023-08-11T07:02:59.649Z,4.43
2023-08-11T07:05:27.048Z,4.93
2023-08-11T07:07:54.206Z,4.20
2023-08-11T07:10:21.399Z,4.30
2023-08-11T07:12:48.601Z,3.83
2023-08-11T07:15:15.732Z,4.53
2023-08-11T07:17:42.890Z,4.17
2023-08-11T07:20:10.257Z,4.60
2023-08-11T07:22:37.368Z,4.90
2023-08-11T07:25:04.800Z,4.13
2023-08-11T07:27:31.828Z,4.70
2023-08-11T07:29:58.961Z,4.00
2023-08-11T07:32:26.044Z,5.83
2023-08-11T07:34:53.197Z,4.37
2023-08-11T07:37:20.308Z,4.23
2023-08-11T07:39:47.381Z,4.57
2023-08-11T07:42:15.118Z,3.97
2023-08-11T07:44:42.133Z,3.33
2023-08-11T07:47:09.514Z,4.63
2023-08-11T07:49:37.064Z,4.17
2023-08-11T07:52:04.612Z,4.37
2023-08-11T07:54:31.856Z,4.10
2023-08-11T07:56:59.070Z,3.77
2023-08-11T07:59:26.321Z,3.60
2023-08-11T08:01:53.731Z,4.03
2023-08-11T08:04:20.891Z,3.80
2023-08-11T08:06:48.131Z,3.33
2023-08-11T08:09:16.208Z,3.50
2023-08-11T08:11:45.097Z,3.80
2023-08-11T08:14:13.753Z,3.27
2023-08-11T08:16:46.466Z,3.50
2023-08-11T08:19:15.803Z,3.90
2023-08-11T08:21:43.944Z,3.97
2023-08-11T08:24:11.061Z,3.77
2023-08-11T08:26:38.241Z,3.83
2023-08-11T08:29:06.112Z,3.53
2023-08-11T08:31:33.849Z,3.37
2023-08-11T08:34:01.168Z,4.00
2023-08-11T08:36:30.533Z,3.57
2023-08-11T08:38:57.814Z,3.80
2023-08-11T08:41:29.735Z,3.80
2023-08-11T08:43:57.787Z,3.40
2023-08-11T08:46:31.975Z,3.37
2023-08-11T08:49:13.344Z,3.10
2023-08-11T08:51:42.026Z,2.83
2023-08-11T08:54:11.777Z,2.90
2023-08-11T08:56:40.658Z,3.20
2023-08-11T08:59:08.704Z,2.70
2023-08-11T09:01:38.568Z,3.20
2023-08-11T09:04:10.227Z,2.80
2023-08-11T09:06:40.073Z,3.20
2023-08-11T09:09:10.404Z,3.40
2023-08-11T09:11:39.637Z,2.70
2023-08-11T09:14:08.161Z,2.97
2023-08-11T09:16:37.122Z,3.00
2023-08-11T09:19:06.159Z,3.13
2023-08-11T09:21:33.160Z,2.50
2023-08-11T09:24:01.192Z,3.07
2023-08-11T09:26:28.517Z,3.23
2023-08-11T09:28:56.492Z,2.73
2023-08-11T09:31:24.451Z,3.47
2023-08-11T09:33:52.783Z,3.63
2023-08-11T09:36:20.965Z,2.60
2023-08-11T09:38:49.981Z,2.23
2023-08-11T09:41:17.961Z,2.87
2023-08-11T09:43:51.922Z,2.60
2023-08-11T09:46:26.583Z,3.17
2023-08-11T09:48:56.407Z,2.67
2023-08-11T09:51:24.258Z,3.67
2023-08-11T09:53:53.089Z,3.27
2023-08-11T09:56:21.628Z,2.57
2023-08-11T09:58:53.903Z,2.53
2023-08-11T10:01:22.418Z,2.33
2023-08-11T10:03:49.923Z,2.40
2023-08-11T10:06:22.870Z,2.30
2023-08-11T10:08:51.546Z,3.23
2023-08-11T10:11:21.237Z,2.30
2023-08-11T10:13:49.583Z,2.73
2023-08-11T10:16:17.513Z,2.37
2023-08-11T10:18:45.380Z,2.30
2023-08-11T10:21:13.755Z,2.53
2023-08-11T10:23:41.576Z,2.17
2023-08-11T10:26:09.609Z,2.90
2023-08-11T10:28:37.389Z,2.57
2023-08-11T10:31:06.441Z,2.57
2023-08-11T10:33:33.692Z,2.60
2023-08-11T10:36:02.030Z,2.93
2023-08-11T10:38:31.630Z,2.03
2023-08-11T10:41:01.924Z,2.73
2023-08-11T10:43:32.222Z,2.00
2023-08-11T10:46:18.187Z,2.50
2023-08-11T10:48:45.420Z,3.60
2023-08-11T10:51:38.749Z,2.80
2023-08-11T10:54:10.621Z,2.60
2023-08-11T10:56:43.001Z,2.63
2023-08-11T10:59:19.198Z,2.97
2023-08-11T11:01:49.461Z,4.50
2023-08-11T11:04:18.242Z,2.70
2023-08-11T11:06:47.332Z,2.70
2023-08-11T11:09:15.207Z,2.23
2023-08-11T11:11:42.434Z,2.37
2023-08-11T11:14:10.839Z,2.27
2023-08-11T11:16:39.040Z,2.53
2023-08-11T11:19:08.433Z,2.70
2023-08-11T11:21:36.257Z,2.33
2023-08-11T11:24:03.394Z,2.60
2023-08-11T11:26:32.641Z,2.43
2023-08-11T11:29:02.195Z,2.60
2023-08-11T11:31:32.065Z,2.70
2023-08-11T11:33:59.868Z,2.27
2023-08-11T11:36:27.095Z,3.07
2023-08-11T11:38:54.240Z,2.80
2023-08-11T11:41:21.635Z,2.63
2023-08-11T11:43:50.511Z,2.53
2023-08-11T11:46:20.822Z,2.90
2023-08-11T11:48:50.802Z,2.27
2023-08-11T11:51:19.599Z,3.00
2023-08-11T11:53:47.076Z,1.90
2023-08-11T11:56:23.785Z,3.00
2023-08-11T11:58:51.391Z,2.70
2023-08-11T12:01:29.174Z,2.90
2023-08-11T12:04:02.481Z,2.47
2023-08-11T12:06:30.292Z,2.50
2023-08-11T12:09:10.612Z,2.83
2023-08-11T12:11:40.585Z,2.67
2023-08-11T12:14:07.823Z,3.03
2023-08-11T12:16:36.620Z,3.03
2023-08-11T12:19:04.965Z,3.07
2023-08-11T12:21:33.163Z,2.83
2023-08-11T12:24:00.128Z,3.43
2023-08-11T12:26:27.634Z,2.70
2023-08-11T12:28:54.615Z,2.70
2023-08-11T12:31:21.904Z,2.60
2023-08-11T12:33:49.047Z,2.90
2023-08-11T12:36:16.711Z,2.07
2023-08-11T12:38:43.688Z,2.40
2023-08-11T12:41:10.665Z,2.67
2023-08-11T12:43:37.631Z,2.60
2023-08-11T12:46:04.632Z,2.90
2023-08-11T12:48:31.688Z,2.77
2023-08-11T12:55:19.804Z,2.07
2023-08-11T12:57:46.923Z,2.30
2023-08-11T13:00:15.097Z,2.70
2023-08-11T13:02:42.406Z,2.70
2023-08-11T18:16:37.978Z,2.30
2023-08-11T22:31:04.760Z,5.77
2023-08-11T22:39:24.513Z,5.33
